sensor_id;sensor_type;location;lat;lon;timestamp;temperature;humidity
30250;DHT22;17064;47.974;13.826;2022-11-15T04:03:48;3.10;99.90
30250;DHT22;17064;47.974;13.826;2022-11-15T04:08:48;3.00;99.90
30250;DHT22;17064;47.974;13.826;2022-11-15T04:13:52;2.90;99.90
30250;DHT22;17064;47.974;13.826;2022-11-15T04:18:53;2.90;99.90
30250;DHT22;17064;47.974;13.826;2022-11-15T04:24:18;2.90;99.90
30250;DHT22;17064;47.974;13.826;2022-11-15T04:29:19;2.80;99.90
30250;DHT22;17064;47.974;13.826;2022-11-15T04:34:39;2.80;99.90
30250;DHT22;17064;47.974;13.826;2022-11-15T04:39:40;2.70;99.90
30250;DHT22;17064;47.974;13.826;2022-11-15T04:44:41;2.60;99.90
30250;DHT22;17064;47.974;13.826;2022-11-15T04:49:42;2.60;99.90
30250;DHT22;17064;47.974;13.826;2022-11-15T04:54:44;2.50;99.90
30250;DHT22;17064;47.974;13.826;2022-11-15T04:59:45;2.40;99.90
30250;DHT22;17064;47.974;13.826;2022-11-15T05:04:45;2.40;99.90
30250;DHT22;17064;47.974;13.826;2022-11-15T05:09:46;2.40;99.90
30250;DHT22;17064;47.974;13.826;2022-11-15T05:14:47;2.40;99.90
30250;DHT22;17064;47.974;13.826;2022-11-15T05:19:48;2.40;99.90
30250;DHT22;17064;47.974;13.826;2022-11-15T05:24:49;2.30;99.90
30250;DHT22;17064;47.974;13.826;2022-11-15T05:29:49;2.20;99.90
30250;DHT22;17064;47.974;13.826;2022-11-15T05:34:50;2.20;99.90
30250;DHT22;17064;47.974;13.826;2022-11-15T05:39:51;2.10;99.90
30250;DHT22;17064;47.974;13.826;2022-11-15T05:44:52;2.10;99.90
30250;DHT22;17064;47.974;13.826;2022-11-15T05:49:53;2.00;99.90
30250;DHT22;17064;47.974;13.826;2022-11-15T05:54:55;1.90;99.90
30250;DHT22;17064;47.974;13.826;2022-11-15T05:59:57;2.00;99.90
30250;DHT22;17064;47.974;13.826;2022-11-15T06:04:58;2.00;99.90
30250;DHT22;17064;47.974;13.826;2022-11-15T06:10:04;2.10;99.90
30250;DHT22;17064;47.974;13.826;2022-11-15T06:15:06;2.20;99.90
30250;DHT22;17064;47.974;13.826;2022-11-15T06:20:07;2.20;99.90
30250;DHT22;17064;47.974;13.826;2022-11-15T06:25:08;2.20;99.90
30250;DHT22;17064;47.974;13.826;2022-11-15T06:30:09;2.20;99.90
30250;DHT22;17064;47.974;13.826;2022-11-15T06:35:10;2.30;99.90
30250;DHT22;17064;47.974;13.826;2022-11-15T06:40:11;2.30;99.90
30250;DHT22;17064;47.974;13.826;2022-11-15T06:45:11;2.40;99.90
30250;DHT22;17064;47.974;13.826;2022-11-15T06:50:12;2.50;99.90
30250;DHT22;17064;47.974;13.826;2022-11-15T06:55:13;2.60;99.90
30250;DHT22;17064;47.974;13.826;2022-11-15T07:00:15;2.70;99.90
30250;DHT22;17064;47.974;13.826;2022-11-15T07:05:16;2.70;99.90
30250;DHT22;17064;47.974;13.826;2022-11-15T07:10:17;2.80;99.90
30250;DHT22;17064;47.974;13.826;2022-11-15T07:15:18;2.90;99.90
30250;DHT22;17064;47.974;13.826;2022-11-15T07:20:20;2.90;99.90
30250;DHT22;17064;47.974;13.826;2022-11-15T07:25:20;3.00;99.90
30250;DHT22;17064;47.974;13.826;2022-11-15T07:30:21;3.20;99.90
30250;DHT22;17064;47.974;13.826;2022-11-15T07:35:22;3.30;99.90
30250;DHT22;17064;47.974;13.826;2022-11-15T07:40:25;3.30;99.90
30250;DHT22;17064;47.974;13.826;2022-11-15T07:45:26;3.40;99.90
30250;DHT22;17064;47.974;13.826;2022-11-15T07:50:27;3.50;99.90
30250;DHT22;17064;47.974;13.826;2022-11-15T07:55:30;3.50;99.90
30250;DHT22;17064;47.974;13.826;2022-11-15T08:00:31;3.70;99.90
30250;DHT22;17064;47.974;13.826;2022-11-15T08:05:32;3.70;99.90
30250;DHT22;17064;47.974;13.826;2022-11-15T08:10:34;3.90;99.90
30250;DHT22;17064;47.974;13.826;2022-11-15T08:15:36;4.00;99.90
30250;DHT22;17064;47.974;13.826;2022-11-15T08:20:37;4.10;99.90
30250;DHT22;17064;47.974;13.826;2022-11-15T08:25:38;4.00;99.90
30250;DHT22;17064;47.974;13.826;2022-11-15T08:30:40;4.00;99.90
30250;DHT22;17064;47.974;13.826;2022-11-15T08:35:43;4.10;99.90
30250;DHT22;17064;47.974;13.826;2022-11-15T08:40:43;4.20;99.90
30250;DHT22;17064;47.974;13.826;2022-11-15T08:45:44;4.30;99.90
30250;DHT22;17064;47.974;13.826;2022-11-15T08:50:45;4.30;99.90
30250;DHT22;17064;47.974;13.826;2022-11-15T08:55:46;4.50;99.90
30250;DHT22;17064;47.974;13.826;2022-11-15T09:00:46;4.60;99.90
30250;DHT22;17064;47.974;13.826;2022-11-15T09:05:47;4.60;99.90
30250;DHT22;17064;47.974;13.826;2022-11-15T09:10:48;4.70;99.90
30250;DHT22;17064;47.974;13.826;2022-11-15T09:15:49;4.80;99.90
30250;DHT22;17064;47.974;13.826;2022-11-15T09:20:49;4.90;99.90
30250;DHT22;17064;47.974;13.826;2022-11-15T09:25:50;5.00;99.90
30250;DHT22;17064;47.974;13.826;2022-11-15T09:30:51;5.00;99.90
30250;DHT22;17064;47.974;13.826;2022-11-15T09:35:52;5.00;99.90
30250;DHT22;17064;47.974;13.826;2022-11-15T09:51:38;5.30;99.90
30250;DHT22;17064;47.974;13.826;2022-11-15T09:56:47;5.30;99.90
30250;DHT22;17064;47.974;13.826;2022-11-15T10:07:40;5.70;99.90
30250;DHT22;17064;47.974;13.826;2022-11-15T10:12:48;5.80;99.90
30250;DHT22;17064;47.974;13.826;2022-11-15T10:23:10;6.20;99.90
30250;DHT22;17064;47.974;13.826;2022-11-15T10:28:22;6.60;99.90
30250;DHT22;17064;47.974;13.826;2022-11-15T10:49:22;6.20;99.90
30250;DHT22;17064;47.974;13.826;2022-11-15T10:54:39;6.00;99.90
30250;DHT22;17064;47.974;13.826;2022-11-15T10:59:52;6.10;99.90
30250;DHT22;17064;47.974;13.826;2022-11-15T11:04:53;6.00;99.90
30250;DHT22;17064;47.974;13.826;2022-11-15T11:15:02;6.10;99.90
30250;DHT22;17064;47.974;13.826;2022-11-15T11:25:22;6.20;99.90
30250;DHT22;17064;47.974;13.826;2022-11-15T11:57:29;6.20;99.90
30250;DHT22;17064;47.974;13.826;2022-11-15T12:02:50;6.30;99.90
30250;DHT22;17064;47.974;13.826;2022-11-15T12:07:56;6.50;99.90
30250;DHT22;17064;47.974;13.826;2022-11-15T12:13:10;6.60;99.90
30250;DHT22;17064;47.974;13.826;2022-11-15T12:18:15;6.70;99.90
30250;DHT22;17064;47.974;13.826;2022-11-15T12:23:25;6.70;99.90
30250;DHT22;17064;47.974;13.826;2022-11-15T12:28:49;6.60;99.90
30250;DHT22;17064;47.974;13.826;2022-11-15T12:33:55;6.60;99.90
30250;DHT22;17064;47.974;13.826;2022-11-15T12:39:06;6.50;99.90
30250;DHT22;17064;47.974;13.826;2022-11-15T13:00:02;6.40;99.90
30250;DHT22;17064;47.974;13.826;2022-11-15T13:10:31;6.40;99.90
30250;DHT22;17064;47.974;13.826;2022-11-15T13:15:37;6.50;99.90
30250;DHT22;17064;47.974;13.826;2022-11-15T13:20:38;6.50;99.90
30250;DHT22;17064;47.974;13.826;2022-11-15T13:26:13;6.60;99.90
30250;DHT22;17064;47.974;13.826;2022-11-15T13:31:36;6.50;99.90
30250;DHT22;17064;47.974;13.826;2022-11-15T13:36:38;6.40;99.90
30250;DHT22;17064;47.974;13.826;2022-11-15T13:41:49;6.30;99.90
30250;DHT22;17064;47.974;13.826;2022-11-15T13:47:05;6.20;99.90
30250;DHT22;17064;47.974;13.826;2022-11-15T13:52:09;6.10;99.90
30250;DHT22;17064;47.974;13.826;2022-11-15T13:57:26;6.00;99.90
30250;DHT22;17064;47.974;13.826;2022-11-15T14:02:31;5.90;99.90
30250;DHT22;17064;47.974;13.826;2022-11-15T14:07:32;5.90;99.90
30250;DHT22;17064;47.974;13.826;2022-11-15T14:12:37;5.90;99.90
30250;DHT22;17064;47.974;13.826;2022-11-15T14:17:38;5.80;99.90
30250;DHT22;17064;47.974;13.826;2022-11-15T14:22:51;5.70;99.90
30250;DHT22;17064;47.974;13.826;2022-11-15T14:38:29;5.70;99.90
30250;DHT22;17064;47.974;13.826;2022-11-15T14:43:30;5.70;99.90
30250;DHT22;17064;47.974;13.826;2022-11-15T14:48:31;5.60;99.90
30250;DHT22;17064;47.974;13.826;2022-11-15T14:53:32;5.70;99.90
30250;DHT22;17064;47.974;13.826;2022-11-15T14:58:32;5.70;99.90
30250;DHT22;17064;47.974;13.826;2022-11-15T15:03:33;5.60;99.90
30250;DHT22;17064;47.974;13.826;2022-11-15T15:08:34;5.50;99.90
30250;DHT22;17064;47.974;13.826;2022-11-15T15:13:35;5.40;99.90
30250;DHT22;17064;47.974;13.826;2022-11-15T15:18:35;5.40;99.90
30250;DHT22;17064;47.974;13.826;2022-11-15T15:23:36;5.30;99.90
30250;DHT22;17064;47.974;13.826;2022-11-15T15:28:37;5.20;99.90
30250;DHT22;17064;47.974;13.826;2022-11-15T15:33:38;5.20;99.90
30250;DHT22;17064;47.974;13.826;2022-11-15T15:38:39;5.10;99.90
30250;DHT22;17064;47.974;13.826;2022-11-15T15:43:41;5.10;99.90
30250;DHT22;17064;47.974;13.826;2022-11-15T15:48:43;5.00;99.90
30250;DHT22;17064;47.974;13.826;2022-11-15T15:53:44;5.00;99.90
30250;DHT22;17064;47.974;13.826;2022-11-15T15:58:44;5.00;99.90
30250;DHT22;17064;47.974;13.826;2022-11-15T16:03:45;5.00;99.90
30250;DHT22;17064;47.974;13.826;2022-11-15T16:08:46;5.00;99.90
30250;DHT22;17064;47.974;13.826;2022-11-15T16:13:47;5.00;99.90
30250;DHT22;17064;47.974;13.826;2022-11-15T16:18:47;5.00;99.90
30250;DHT22;17064;47.974;13.826;2022-11-15T16:23:48;5.00;99.90
30250;DHT22;17064;47.974;13.826;2022-11-15T16:28:49;5.00;99.90
30250;DHT22;17064;47.974;13.826;2022-11-15T16:33:50;5.00;99.90
30250;DHT22;17064;47.974;13.826;2022-11-15T16:38:51;4.90;99.90
30250;DHT22;17064;47.974;13.826;2022-11-15T16:43:52;4.90;99.90
30250;DHT22;17064;47.974;13.826;2022-11-15T16:48:53;5.00;99.90
30250;DHT22;17064;47.974;13.826;2022-11-15T16:53:54;4.90;99.90
30250;DHT22;17064;47.974;13.826;2022-11-15T16:58:56;4.90;99.90
30250;DHT22;17064;47.974;13.826;2022-11-15T17:03:58;4.90;99.90
30250;DHT22;17064;47.974;13.826;2022-11-15T17:09:20;4.80;99.90
30250;DHT22;17064;47.974;13.826;2022-11-15T17:14:24;4.80;99.90
30250;DHT22;17064;47.974;13.826;2022-11-15T17:19:24;4.80;99.90
30250;DHT22;17064;47.974;13.826;2022-11-15T17:24:25;4.70;99.90
30250;DHT22;17064;47.974;13.826;2022-11-15T17:29:26;4.70;99.90
30250;DHT22;17064;47.974;13.826;2022-11-15T17:34:27;4.70;99.90
30250;DHT22;17064;47.974;13.826;2022-11-15T17:39:28;4.70;99.90
30250;DHT22;17064;47.974;13.826;2022-11-15T17:44:29;4.70;99.90
30250;DHT22;17064;47.974;13.826;2022-11-15T17:49:30;4.70;99.90
30250;DHT22;17064;47.974;13.826;2022-11-15T17:54:31;4.60;99.90
30250;DHT22;17064;47.974;13.826;2022-11-15T17:59:32;4.70;99.90
30250;DHT22;17064;47.974;13.826;2022-11-15T18:04:33;4.60;99.90
30250;DHT22;17064;47.974;13.826;2022-11-15T18:09:34;4.60;99.90
30250;DHT22;17064;47.974;13.826;2022-11-15T18:14:35;4.50;99.90
30250;DHT22;17064;47.974;13.826;2022-11-15T18:19:36;4.50;99.90
30250;DHT22;17064;47.974;13.826;2022-11-15T18:24:37;4.50;99.90
30250;DHT22;17064;47.974;13.826;2022-11-15T18:29:40;4.50;99.90
30250;DHT22;17064;47.974;13.826;2022-11-15T18:34:42;4.50;99.90
30250;DHT22;17064;47.974;13.826;2022-11-15T18:39:43;4.60;99.90
30250;DHT22;17064;47.974;13.826;2022-11-15T18:44:44;4.60;99.90
30250;DHT22;17064;47.974;13.826;2022-11-15T18:49:44;4.60;99.90
30250;DHT22;17064;47.974;13.826;2022-11-15T18:54:45;4.60;99.90
30250;DHT22;17064;47.974;13.826;2022-11-15T18:59:46;4.50;99.90
30250;DHT22;17064;47.974;13.826;2022-11-15T19:04:47;4.50;99.90
30250;DHT22;17064;47.974;13.826;2022-11-15T19:09:48;4.50;99.90
30250;DHT22;17064;47.974;13.826;2022-11-15T19:14:49;4.50;99.90
30250;DHT22;17064;47.974;13.826;2022-11-15T19:19:51;4.50;99.90
30250;DHT22;17064;47.974;13.826;2022-11-15T19:24:52;4.50;99.90
30250;DHT22;17064;47.974;13.826;2022-11-15T19:29:53;4.50;99.90
30250;DHT22;17064;47.974;13.826;2022-11-15T19:34:54;4.60;99.90
30250;DHT22;17064;47.974;13.826;2022-11-15T19:39:55;4.50;99.90
30250;DHT22;17064;47.974;13.826;2022-11-15T19:44:56;4.60;99.90
30250;DHT22;17064;47.974;13.826;2022-11-15T19:49:58;4.60;99.90
30250;DHT22;17064;47.974;13.826;2022-11-15T19:54:59;4.50;99.90
30250;DHT22;17064;47.974;13.826;2022-11-15T20:00:00;4.50;99.90
30250;DHT22;17064;47.974;13.826;2022-11-15T20:05:01;4.50;99.90
30250;DHT22;17064;47.974;13.826;2022-11-15T20:10:02;4.40;99.90
30250;DHT22;17064;47.974;13.826;2022-11-15T20:15:03;4.40;99.90
30250;DHT22;17064;47.974;13.826;2022-11-15T20:20:04;4.30;99.90
30250;DHT22;17064;47.974;13.826;2022-11-15T20:25:05;4.30;99.90
30250;DHT22;17064;47.974;13.826;2022-11-15T20:30:07;4.30;99.90
30250;DHT22;17064;47.974;13.826;2022-11-15T20:35:08;4.20;99.90
30250;DHT22;17064;47.974;13.826;2022-11-15T20:40:09;4.20;99.90
30250;DHT22;17064;47.974;13.826;2022-11-15T20:45:10;4.10;99.90
30250;DHT22;17064;47.974;13.826;2022-11-15T20:50:11;4.10;99.90
30250;DHT22;17064;47.974;13.826;2022-11-15T20:55:12;4.10;99.90
30250;DHT22;17064;47.974;13.826;2022-11-15T21:00:13;4.10;99.90
30250;DHT22;17064;47.974;13.826;2022-11-15T21:05:15;4.10;99.90
30250;DHT22;17064;47.974;13.826;2022-11-15T21:10:16;4.10;99.90
30250;DHT22;17064;47.974;13.826;2022-11-15T21:15:35;4.10;99.90
30250;DHT22;17064;47.974;13.826;2022-11-15T21:20:36;4.10;99.90
30250;DHT22;17064;47.974;13.826;2022-11-15T21:25:37;4.10;99.90
30250;DHT22;17064;47.974;13.826;2022-11-15T21:30:38;4.00;99.90
30250;DHT22;17064;47.974;13.826;2022-11-15T21:35:39;4.00;99.90
30250;DHT22;17064;47.974;13.826;2022-11-15T21:40:40;3.90;99.90
30250;DHT22;17064;47.974;13.826;2022-11-15T21:45:40;3.90;99.90
30250;DHT22;17064;47.974;13.826;2022-11-15T21:50:41;3.90;99.90
30250;DHT22;17064;47.974;13.826;2022-11-15T21:55:42;4.00;99.90
30250;DHT22;17064;47.974;13.826;2022-11-15T22:00:43;4.00;99.90
30250;DHT22;17064;47.974;13.826;2022-11-15T22:06:03;4.00;99.90
30250;DHT22;17064;47.974;13.826;2022-11-15T22:11:04;4.10;99.90
30250;DHT22;17064;47.974;13.826;2022-11-15T22:16:05;4.10;99.90
30250;DHT22;17064;47.974;13.826;2022-11-15T22:21:09;4.20;99.90
30250;DHT22;17064;47.974;13.826;2022-11-15T22:26:15;4.20;99.90
30250;DHT22;17064;47.974;13.826;2022-11-15T22:31:16;4.10;99.90
30250;DHT22;17064;47.974;13.826;2022-11-15T22:36:17;4.10;99.90
30250;DHT22;17064;47.974;13.826;2022-11-15T22:41:18;4.10;99.90
30250;DHT22;17064;47.974;13.826;2022-11-15T22:46:18;4.10;99.90
30250;DHT22;17064;47.974;13.826;2022-11-15T22:51:19;4.00;99.90
30250;DHT22;17064;47.974;13.826;2022-11-15T22:56:20;4.00;99.90
30250;DHT22;17064;47.974;13.826;2022-11-15T23:01:21;4.00;99.90
30250;DHT22;17064;47.974;13.826;2022-11-15T23:06:21;4.10;99.90
30250;DHT22;17064;47.974;13.826;2022-11-15T23:11:22;4.10;99.90
30250;DHT22;17064;47.974;13.826;2022-11-15T23:16:41;4.10;99.90
30250;DHT22;17064;47.974;13.826;2022-11-15T23:21:44;4.10;99.90
30250;DHT22;17064;47.974;13.826;2022-11-15T23:27:05;4.20;99.90
30250;DHT22;17064;47.974;13.826;2022-11-15T23:32:09;4.30;99.90
30250;DHT22;17064;47.974;13.826;2022-11-15T23:37:28;4.30;99.90
30250;DHT22;17064;47.974;13.826;2022-11-15T23:42:29;4.30;99.90
30250;DHT22;17064;47.974;13.826;2022-11-15T23:47:30;4.40;99.90
30250;DHT22;17064;47.974;13.826;2022-11-15T23:52:31;4.40;99.90
30250;DHT22;17064;47.974;13.826;2022-11-15T23:57:32;4.40;99.90
